Time;durP1;ratioP1;P1;durP2;ratioP2;P2;SDS_P1;SDS_P2;PMS_P1;PMS_P2;Temp;Humidity;BMP_temperature;BMP_pressure;BME280_temperature;BME280_humidity;BME280_pressure;Samples;Min_cycle;Max_cycle;Signal;HPM_P1;HPM_P2
2021/12/05 00:23:34;;;;;;;;;;;;;;;4.31;100.00;99337.41;4982065;28;20047;-90
2021/12/05 00:26:04;;;;;;;67.10;35.13;;;;;;;4.15;100.00;99339.88;4984990;28;19922;-90
2021/12/05 00:29:07;;;;;;;65.43;32.72;;;;;;;4.10;100.00;99339.53;4992378;28;20030;-90
2021/12/05 00:37:39;;;;;;;62.95;34.20;;;;;;;3.83;100.00;99313.38;4971839;28;20086;-90
2021/12/05 00:47:39;;;;;;;65.13;33.50;;;;;;;3.85;100.00;99307.00;4984391;28;20042;-92
2021/12/05 01:00:52;;;;;;;57.97;31.25;;;;;;;4.38;100.00;99317.47;4968256;28;20287;-88
2021/12/05 01:06:50;;;;;;;63.47;33.95;;;;;;;4.14;100.00;99317.28;4982436;28;20042;-92
2021/12/05 01:16:27;;;;;;;65.60;32.97;;;;;;;4.20;100.00;99311.44;4966294;28;20122;-88
2021/12/05 01:18:54;;;;;;;59.53;32.47;;;;;;;4.13;100.00;99315.63;4965614;28;20057;-89
2021/12/05 01:21:23;;;;;;;67.20;35.20;;;;;;;4.19;100.00;99301.91;4963579;28;20070;-90
2021/12/05 01:24:04;;;;;;;71.72;34.67;;;;;;;4.08;100.00;99307.38;4964991;28;20472;-91
2021/12/05 01:31:48;;;;;;;66.30;34.53;;;;;;;4.07;100.00;99300.50;4968988;28;19918;-90
2021/12/05 01:58:18;;;;;;;61.03;33.97;;;;;;;4.00;100.00;99305.53;4985541;28;20047;-90
2021/12/05 02:34:13;;;;;;;63.63;35.40;;;;;;;3.82;100.00;99243.56;4962898;29;20051;-92
2021/12/05 02:41:49;;;;;;;58.17;31.40;;;;;;;4.29;100.00;99226.59;4926910;29;20087;-90
2021/12/05 02:47:09;;;;;;;57.83;30.10;;;;;;;4.24;100.00;99223.63;4920796;29;20499;-89
2021/12/05 02:49:38;;;;;;;57.00;32.05;;;;;;;4.15;100.00;99214.03;4921501;29;20040;-87
2021/12/05 02:52:10;;;;;;;61.72;32.50;;;;;;;3.96;100.00;99219.47;4922759;29;20043;-87
2021/12/05 02:54:42;;;;;;;57.93;32.53;;;;;;;3.81;100.00;99221.00;4955684;29;20058;-87
2021/12/05 02:57:09;;;;;;;59.28;33.25;;;;;;;3.81;100.00;99221.78;4959762;29;20631;-91
2021/12/05 03:02:12;;;;;;;61.42;33.35;;;;;;;3.71;100.00;99199.28;4943405;29;20055;-88
2021/12/05 03:04:42;;;;;;;63.22;34.75;;;;;;;3.67;100.00;99200.56;4951371;29;20178;-88
2021/12/05 03:07:10;;;;;;;61.78;34.28;;;;;;;3.64;100.00;99201.69;4966161;28;20650;-88
2021/12/05 03:09:39;;;;;;;73.05;35.45;;;;;;;3.78;100.00;99205.56;4944750;29;20463;-89
2021/12/05 03:12:11;;;;;;;64.30;34.95;;;;;;;3.97;100.00;99200.97;4960330;29;20046;-91
2021/12/05 03:14:38;;;;;;;46.77;25.07;;;;;;;3.96;100.00;99208.97;4944626;29;20067;-89
2021/12/05 03:17:04;;;;;;;64.93;33.60;;;;;;;4.01;100.00;99207.53;4944404;29;20419;-90
2021/12/05 03:19:30;;;;;;;64.47;33.95;;;;;;;4.10;100.00;99211.06;4946586;29;20035;-90
2021/12/05 03:22:02;;;;;;;57.17;33.47;;;;;;;4.11;100.00;99186.47;4944049;29;20122;-89
2021/12/05 03:24:31;;;;;;;60.95;33.80;;;;;;;4.16;100.00;99184.22;4927297;29;20035;-91
2021/12/05 03:26:59;;;;;;;63.78;33.88;;;;;;;4.08;100.00;99181.53;4943188;29;20439;-90
2021/12/05 03:29:25;;;;;;;61.45;34.00;;;;;;;3.99;100.00;99171.97;4942780;29;20035;-88
2021/12/05 03:31:53;;;;;;;65.43;34.10;;;;;;;3.94;100.00;99161.16;4943222;29;20037;-89
2021/12/05 03:34:22;;;;;;;65.72;35.33;;;;;;;3.84;100.00;99163.03;4942061;29;20039;-88
2021/12/05 03:36:52;;;;;;;67.82;36.47;;;;;;;3.73;100.00;99160.66;4943275;29;20087;-91
2021/12/05 03:39:19;;;;;;;66.47;36.97;;;;;;;3.70;100.00;99153.91;4944411;29;20086;-90
2021/12/05 03:41:46;;;;;;;64.07;35.90;;;;;;;3.71;100.00;99152.13;4943546;29;20047;-88
2021/12/05 03:44:19;;;;;;;72.85;35.28;;;;;;;3.75;100.00;99158.69;4944429;29;20042;-89
2021/12/05 03:46:47;;;;;;;73.75;35.95;;;;;;;3.99;100.00;99153.63;4947437;28;20031;-89
2021/12/05 03:49:15;;;;;;;63.30;34.55;;;;;;;4.00;100.00;99142.19;4947325;29;20035;-88
2021/12/05 03:51:56;;;;;;;63.78;35.70;;;;;;;4.06;100.00;99162.53;4962589;29;20110;-92
2021/12/05 03:54:26;;;;;;;59.15;34.28;;;;;;;4.20;100.00;99167.22;4950084;29;20114;-87
2021/12/05 03:56:53;;;;;;;65.00;34.42;;;;;;;4.38;100.00;99178.44;4944617;29;20043;-92
2021/12/05 03:59:24;;;;;;;63.78;32.95;;;;;;;4.42;100.00;99176.34;4970216;28;20039;-90
2021/12/05 04:01:52;;;;;;;65.70;34.97;;;;;;;4.28;100.00;99179.53;4955454;29;20035;-88
2021/12/05 04:04:21;;;;;;;65.47;33.05;;;;;;;4.21;100.00;99176.69;4971218;29;20027;-92
2021/12/05 04:06:53;;;;;;;62.38;34.00;;;;;;;4.20;100.00;99189.97;4963339;29;20507;-89
2021/12/05 04:09:21;;;;;;;65.10;33.00;;;;;;;4.20;100.00;99203.91;4947702;29;20038;-90
2021/12/05 04:12:02;;;;;;;61.35;33.00;;;;;;;4.11;100.00;99208.28;4946679;29;20035;-90
2021/12/05 04:14:42;;;;;;;58.63;33.28;;;;;;;4.09;100.00;99215.47;4948266;29;20032;-92
2021/12/05 04:17:11;;;;;;;61.60;33.13;;;;;;;4.07;100.00;99211.38;4947702;29;20149;-92
2021/12/05 04:19:38;;;;;;;58.83;32.20;;;;;;;3.95;100.00;99207.31;4947703;29;20055;-91
2021/12/05 04:22:07;;;;;;;60.17;33.45;;;;;;;3.93;100.00;99225.00;4948953;29;20050;-90
2021/12/05 04:24:44;;;;;;;65.97;34.13;;;;;;;3.85;100.00;99202.16;4950637;29;20098;-88
2021/12/05 04:27:17;;;;;;;64.85;35.13;;;;;;;3.79;100.00;99207.19;4946564;29;20057;-88
2021/12/05 04:29:45;;;;;;;66.65;36.45;;;;;;;3.78;100.00;99200.34;4946450;29;20384;-89
2021/12/05 04:32:12;;;;;;;63.22;34.70;;;;;;;3.86;100.00;99213.47;4965093;29;20042;-89
2021/12/05 04:34:38;;;;;;;62.35;33.20;;;;;;;3.98;100.00;99218.34;4962990;29;20486;-87
2021/12/05 04:37:06;;;;;;;63.75;33.83;;;;;;;4.11;100.00;99225.78;4944650;29;20083;-89
2021/12/05 04:39:33;;;;;;;62.65;33.17;;;;;;;4.18;100.00;99234.69;4959392;29;20151;-85
2021/12/05 04:41:59;;;;;;;66.05;33.15;;;;;;;4.04;100.00;99243.13;4944401;29;20096;-91
2021/12/05 04:44:26;;;;;;;63.97;33.17;;;;;;;4.15;100.00;99241.06;4963007;29;20054;-88
2021/12/05 04:46:57;;;;;;;59.97;31.75;;;;;;;4.10;100.00;99250.38;4944380;28;20035;-91
2021/12/05 04:49:23;;;;;;;59.20;31.17;;;;;;;4.01;100.00;99246.84;4960485;29;20047;-88
2021/12/05 04:51:50;;;;;;;61.67;32.80;;;;;;;4.11;100.00;99250.22;4960612;29;20486;-90
2021/12/05 04:54:18;;;;;;;60.40;33.17;;;;;;;4.02;100.00;99252.94;4961656;29;20040;-89
2021/12/05 04:56:48;;;;;;;61.53;32.53;;;;;;;4.03;100.00;99244.09;4945254;29;20058;-91
2021/12/05 04:59:18;;;;;;;59.15;32.40;;;;;;;4.05;100.00;99244.75;4945343;29;20070;-92
2021/12/05 05:01:48;;;;;;;56.80;33.80;;;;;;;3.91;100.00;99242.69;4962004;29;20056;-90
2021/12/05 05:04:28;;;;;;;64.97;33.45;;;;;;;3.88;100.00;99238.56;4962369;29;20036;-90
2021/12/05 05:07:01;;;;;;;67.38;34.03;;;;;;;3.83;100.00;99240.81;4962810;29;20102;-89
2021/12/05 05:09:53;;;;;;;68.55;34.92;;;;;;;3.89;100.00;99242.00;4963042;28;20107;-91
2021/12/05 05:12:19;;;;;;;67.38;36.22;;;;;;;3.74;100.00;99248.75;4948109;29;20043;-90
2021/12/05 05:14:45;;;;;;;61.28;33.58;;;;;;;3.69;100.00;99232.66;4952839;29;20039;-82
2021/12/05 05:17:11;;;;;;;66.40;35.17;;;;;;;3.70;100.00;99245.63;4962685;28;20090;-85
2021/12/05 05:19:41;;;;;;;71.82;37.08;;;;;;;3.63;100.00;99250.63;4962212;29;20043;-92
2021/12/05 05:22:20;;;;;;;67.80;36.33;;;;;;;3.48;100.00;99246.84;4965818;29;20031;-90
2021/12/05 05:46:22;;;;;;;66.85;36.08;;;;;;;3.72;100.00;99255.94;4967707;29;20039;-91
2021/12/05 05:49:10;;;;;;;65.68;35.55;;;;;;;3.75;100.00;99260.88;4968980;29;20039;-88
2021/12/05 05:51:33;;;;;;;66.57;35.25;;;;;;;3.97;100.00;99263.88;4963195;29;20073;-90
2021/12/05 05:54:04;;;;;;;66.40;34.03;;;;;;;3.96;100.00;99266.63;4965820;29;20035;-89
2021/12/05 05:56:33;;;;;;;;;;;;;;;3.67;100.00;99264.25;4965618;29;20479;-89
2021/12/05 05:59:05;;;;;;;62.47;33.20;;;;;;;3.59;100.00;99254.50;4967373;28;20019;-88
2021/12/05 06:04:02;;;;;;;55.58;31.17;;;;;;;3.49;100.00;99264.22;4973207;29;20045;-85
2021/12/05 06:06:30;;;;;;;52.45;30.63;;;;;;;3.38;100.00;99267.06;4974887;29;20069;-84
2021/12/05 06:08:56;;;;;;;50.42;30.67;;;;;;;3.40;100.00;99270.38;4972431;29;20043;-87
2021/12/05 06:11:43;;;;;;;49.90;29.30;;;;;;;3.33;100.00;99264.06;4975766;29;20039;-84
2021/12/05 06:14:12;;;;;;;57.75;29.67;;;;;;;3.31;100.00;99271.25;4976276;29;20031;-86
2021/12/05 06:16:37;;;;;;;50.42;28.20;;;;;;;3.42;100.00;99267.56;4973369;29;20031;-85
2021/12/05 06:19:03;;;;;;;53.55;28.23;;;;;;;3.31;100.00;99260.78;4974327;29;20191;-89
2021/12/05 06:21:28;;;;;;;55.97;28.92;;;;;;;3.29;100.00;99260.09;4963589;28;20085;-90
2021/12/05 06:23:54;;;;;;;57.17;29.83;;;;;;;3.21;100.00;99252.16;4960369;29;20126;-88
2021/12/05 06:26:23;;;;;;;48.80;28.08;;;;;;;3.17;100.00;99247.34;4959948;29;20035;-89
2021/12/05 06:29:07;;;;;;;50.00;27.58;;;;;;;3.15;100.00;99250.09;4944132;29;20043;-86
2021/12/05 06:37:54;;;;;;;48.50;26.17;;;;;;;3.04;100.00;99237.22;4961004;29;20055;-87
2021/12/05 06:40:19;;;;;;;50.85;25.90;;;;;;;2.84;100.00;99231.25;4952881;29;20084;-89
2021/12/05 06:42:50;;;;;;;45.17;24.88;;;;;;;2.79;100.00;99232.66;4957675;29;20043;-89
2021/12/05 06:48:07;;;;;;;52.17;25.73;;;;;;;2.64;100.00;99239.31;4957958;29;20047;-88
2021/12/05 06:50:33;;;;;;;49.80;25.33;;;;;;;2.63;100.00;99240.28;4958886;29;20039;-90
2021/12/05 06:52:59;;;;;;;47.53;24.95;;;;;;;2.60;100.00;99239.59;4942916;29;20046;-87
2021/12/05 06:55:24;;;;;;;47.35;25.55;;;;;;;2.54;100.00;99245.41;4941831;29;20031;-90
2021/12/05 06:57:53;;;;;;;47.97;26.23;;;;;;;2.43;100.00;99237.72;4926848;28;20019;-91
2021/12/05 07:00:25;;;;;;;50.13;26.08;;;;;;;2.46;100.00;99253.13;4929183;29;20478;-88
2021/12/05 07:03:11;;;;;;;49.67;25.43;;;;;;;2.40;100.00;99251.09;4942924;29;20081;-91
2021/12/05 07:05:54;;;;;;;50.58;25.08;;;;;;;2.56;100.00;99247.88;4961156;29;20039;-87
2021/12/05 07:08:26;;;;;;;45.17;24.02;;;;;;;2.70;100.00;99251.81;4961667;29;20475;-89
2021/12/05 07:11:30;;;;;;;47.97;24.70;;;;;;;2.82;100.00;99237.59;4958504;29;20043;-87
2021/12/05 07:25:05;;;;;;;46.75;24.63;;;;;;;3.77;100.00;99266.81;4958191;29;20062;-89
2021/12/05 07:40:28;;;;;;;52.45;26.27;;;;;;;4.10;95.24;99253.00;4974352;28;20446;-90
2021/12/05 07:43:15;;;;;;;51.28;25.98;;;;;;;4.25;94.85;99258.50;4978333;28;20065;-89
2021/12/05 07:45:51;;;;;;;53.38;25.60;;;;;;;4.08;93.56;99253.16;4978041;28;20453;-87
2021/12/05 07:48:25;;;;;;;48.85;25.83;;;;;;;3.86;95.25;99255.41;4962228;28;20047;-89
2021/12/05 07:57:20;;;;;;;54.03;27.70;;;;;;;3.39;98.86;99271.31;4933137;28;20061;-85
2021/12/05 08:16:08;;;;;;;52.47;29.13;;;;;;;4.00;95.21;99268.00;4966744;28;20031;-85
2021/12/05 08:18:35;;;;;;;52.38;28.10;;;;;;;4.11;94.57;99265.13;4939169;28;20058;-83
2021/12/05 08:21:02;;;;;;;59.78;28.23;;;;;;;4.22;93.44;99267.50;4963647;28;20038;-87
2021/12/05 08:23:32;;;;;;;64.75;29.27;;;;;;;4.04;94.34;99269.34;4966705;28;20043;-90
2021/12/05 08:26:09;;;;;;;58.70;29.65;;;;;;;4.10;95.35;99273.97;4964493;28;20031;-85
2021/12/05 08:28:56;;;;;;;55.85;29.13;;;;;;;4.07;96.03;99279.53;4959195;28;20071;-83
2021/12/05 09:25:14;;;;;;;57.63;31.45;;;;;;;4.87;98.31;99268.75;4967087;28;20433;-83
2021/12/05 09:28:20;;;;;;;59.33;31.00;;;;;;;4.74;100.00;99272.78;4965803;28;20098;-83
2021/12/05 10:03:35;;;;;;;67.75;32.10;;;;;;;5.28;100.00;99240.03;4969153;28;20074;-86
2021/12/05 10:08:53;;;;;;;59.78;31.10;;;;;;;5.19;100.00;99233.94;4958794;28;20776;-86
2021/12/05 10:14:25;;;;;;;60.95;32.60;;;;;;;5.43;100.00;99223.50;4973759;28;20035;-87
2021/12/05 10:38:16;;;;;;;61.72;30.35;;;;;;;5.78;100.00;99197.91;4966519;28;20055;-86
2021/12/05 10:40:58;;;;;;;55.03;31.02;;;;;;;5.77;100.00;99183.13;4960329;28;20039;-88
2021/12/05 10:43:25;;;;;;;59.78;31.70;;;;;;;5.69;100.00;99187.41;4958610;29;20047;-87
2021/12/05 10:46:10;;;;;;;64.40;35.83;;;;;;;5.95;100.00;99191.69;4943135;29;20094;-85
2021/12/05 10:48:37;;;;;;;57.90;30.60;;;;;;;5.83;100.00;99188.56;4964037;29;20044;-86
2021/12/05 10:51:05;;;;;;;55.92;30.98;;;;;;;5.93;100.00;99189.22;4945060;29;20039;-83
2021/12/05 10:53:43;;;;;;;65.95;32.33;;;;;;;6.13;100.00;99195.00;4941936;29;20399;-86
2021/12/05 10:56:17;;;;;;;65.38;32.30;;;;;;;6.22;99.31;99194.81;4960273;29;20070;-84
2021/12/05 10:59:00;;;;;;;51.78;29.30;;;;;;;6.24;99.47;99192.81;4961394;29;20551;-89
2021/12/05 11:02:00;;;;;;;55.05;28.92;;;;;;;6.32;98.98;99178.00;4959524;29;20461;-87
2021/12/05 11:04:29;;;;;;;61.53;28.65;;;;;;;6.36;97.91;99180.16;4883948;29;20076;-86
2021/12/05 11:06:57;;;;;;;50.70;28.42;;;;;;;6.41;97.94;99177.00;4882083;29;20049;-85
2021/12/05 11:09:25;;;;;;;52.22;26.77;;;;;;;6.40;95.61;99176.16;4879814;29;20074;-87
2021/12/05 11:11:55;;;;;;;46.75;25.60;;;;;;;6.57;94.39;99169.88;4880636;29;20056;-88
2021/12/05 11:14:27;;;;;;;45.75;25.77;;;;;;;6.60;92.50;99166.91;4925273;28;20053;-85
2021/12/05 11:16:56;;;;;;;54.20;26.13;;;;;;;6.61;90.99;99173.81;4965424;28;20483;-86
2021/12/05 11:19:25;;;;;;;48.38;25.23;;;;;;;6.80;90.91;99162.06;4977765;28;20031;-87
2021/12/05 11:21:55;;;;;;;58.35;30.23;;;;;;;6.82;90.10;99159.25;4963915;28;20046;-89
2021/12/05 11:24:30;;;;;;;61.50;31.90;;;;;;;6.82;90.66;99159.25;4962279;28;20057;-87
2021/12/05 11:27:08;;;;;;;57.30;28.52;;;;;;;6.80;90.50;99155.97;4947246;29;20035;-87
2021/12/05 11:29:49;;;;;;;52.55;28.42;;;;;;;6.78;91.48;99148.25;4962818;28;20122;-86
2021/12/05 11:32:20;;;;;;;50.65;26.50;;;;;;;6.83;90.29;99160.91;4957622;29;20035;-85
2021/12/05 11:34:49;;;;;;;48.63;25.60;;;;;;;6.84;90.20;99152.81;4958716;29;20050;-89
2021/12/05 11:37:15;;;;;;;53.13;28.45;;;;;;;6.79;91.74;99149.06;4960847;29;20027;-83
2021/12/05 11:39:41;;;;;;;51.13;27.00;;;;;;;6.75;90.07;99138.88;4960432;29;20036;-85
2021/12/05 11:42:20;;;;;;;49.20;26.92;;;;;;;6.75;89.52;99128.34;4959089;29;20031;-86
2021/12/05 11:44:52;;;;;;;56.58;29.02;;;;;;;6.74;90.89;99129.34;4961032;29;20031;-86
2021/12/05 11:47:20;;;;;;;52.63;27.42;;;;;;;6.74;90.70;99118.81;4948196;29;20031;-84
2021/12/05 11:49:46;;;;;;;48.83;27.25;;;;;;;6.85;90.01;99122.06;4962285;29;20031;-86
2021/12/05 11:52:13;;;;;;;51.95;26.27;;;;;;;6.90;89.14;99117.06;4944473;29;20398;-84
2021/12/05 11:54:46;;;;;;;48.70;26.92;;;;;;;6.97;89.94;99110.13;4943871;29;20066;-85
2021/12/05 11:57:21;;;;;;;48.97;26.33;;;;;;;7.01;89.09;99111.41;4962725;29;20046;-85
2021/12/05 11:59:56;;;;;;;50.00;26.80;;;;;;;7.19;88.25;99109.34;4961493;28;20122;-86
2021/12/05 12:02:40;;;;;;;50.45;26.60;;;;;;;6.97;88.38;99105.69;4961654;29;20049;-86
2021/12/05 12:05:14;;;;;;;50.40;27.17;;;;;;;6.90;89.79;99110.00;4948141;29;20035;-86
2021/12/05 12:08:02;;;;;;;53.50;27.50;;;;;;;6.99;89.95;99103.72;4962132;29;20059;-83
2021/12/05 12:10:34;;;;;;;53.35;29.52;;;;;;;7.24;90.11;99105.19;4954176;28;20063;-83
2021/12/05 12:13:06;;;;;;;60.20;31.40;;;;;;;6.98;91.25;99106.50;4973459;28;20042;-86
2021/12/05 12:15:33;;;;;;;56.25;29.23;;;;;;;7.11;91.49;99101.47;4976760;28;20030;-84
2021/12/05 12:18:11;;;;;;;54.58;29.27;;;;;;;6.98;89.96;99103.88;4963573;28;20040;-86
2021/12/05 12:20:46;;;;;;;53.60;28.52;;;;;;;7.08;89.63;99102.66;4954038;29;20090;-85
2021/12/05 12:23:12;;;;;;;48.88;27.98;;;;;;;7.10;87.99;99097.19;4965185;28;20031;-82
2021/12/05 12:25:39;;;;;;;51.78;27.17;;;;;;;7.12;87.33;99101.31;4984489;28;20046;-83
2021/12/05 12:28:07;;;;;;;55.70;29.38;;;;;;;7.16;87.50;99105.22;4984381;28;20045;-84
2021/12/05 12:30:43;;;;;;;46.20;26.08;;;;;;;6.99;86.62;99103.72;4955249;28;20422;-85
2021/12/05 12:33:13;;;;;;;44.70;24.35;;;;;;;7.05;83.29;99102.19;4978842;28;20113;-84
2021/12/05 12:35:39;;;;;;;42.95;22.13;;;;;;;6.97;82.94;99103.03;4971276;28;20065;-84
2021/12/05 12:38:22;;;;;;;42.80;22.17;;;;;;;7.00;82.76;99093.97;4980228;28;20039;-85
2021/12/05 12:40:50;;;;;;;47.70;23.75;;;;;;;6.97;84.65;99107.50;4972117;28;20057;-83
2021/12/05 12:43:39;;;;;;;45.83;23.48;;;;;;;6.96;83.34;99095.34;4960917;29;20496;-84
2021/12/05 12:46:28;;;;;;;41.60;22.40;;;;;;;6.94;81.80;99094.66;4954266;28;20043;-85
2021/12/05 12:49:21;;;;;;;39.33;22.23;;;;;;;7.06;81.77;99095.94;4965389;28;20106;-86
2021/12/05 12:54:49;;;;;;;48.58;26.65;;;;;;;7.08;81.63;99088.66;4624111;26;19917;-84
2021/12/05 12:57:20;;;;;;;58.35;28.92;;;;;;;7.24;82.09;99089.38;5019488;28;20041;-86
2021/12/05 13:00:00;;;;;;;48.00;25.75;;;;;;;7.24;82.90;99075.38;5019411;28;20066;-85
2021/12/05 13:11:11;;;;;;;53.05;28.70;;;;;;;7.27;83.29;99060.03;4993875;28;20159;-84
2021/12/05 13:13:40;;;;;;;55.85;30.73;;;;;;;7.25;83.57;99064.66;4997280;28;20038;-85
2021/12/05 13:16:16;;;;;;;85.30;49.75;;;;;;;7.32;84.20;99056.88;4999186;28;20030;-86
2021/12/05 13:18:44;;;;;;;108.68;62.45;;;;;;;7.18;83.41;99055.00;4999590;28;20113;-89
2021/12/05 13:21:29;;;;;;;60.33;28.23;;;;;;;7.20;82.04;99047.72;4982571;28;20367;-88
2021/12/05 13:23:55;;;;;;;52.38;27.70;;;;;;;7.19;82.07;99056.66;4977813;28;20038;-87
2021/12/05 13:26:29;;;;;;;52.40;28.35;;;;;;;7.28;82.09;99052.94;5000178;28;20081;-87
2021/12/05 13:29:16;;;;;;;52.92;30.20;;;;;;;7.34;82.29;99051.41;4976017;28;20050;-89
2021/12/05 13:31:54;;;;;;;63.83;32.90;;;;;;;7.04;85.35;99046.03;4999709;28;20041;-87
2021/12/05 13:34:20;;;;;;;62.38;34.17;;;;;;;7.19;85.68;99046.13;5000829;28;20049;-88
2021/12/05 13:36:53;;;;;;;55.72;31.38;;;;;;;7.06;86.64;99036.13;5003999;28;20038;-87
2021/12/05 13:39:34;;;;;;;56.10;30.00;;;;;;;7.05;85.32;99045.06;4982392;28;20042;-85
2021/12/05 13:42:14;;;;;;;54.13;29.23;;;;;;;7.05;84.10;99037.16;4977347;28;20129;-87
2021/12/05 13:44:58;;;;;;;54.38;30.55;;;;;;;7.13;85.02;99039.72;4964410;28;20109;-86
2021/12/05 13:47:29;;;;;;;50.10;28.25;;;;;;;7.23;84.46;99042.94;4965550;28;20505;-87
2021/12/05 13:49:56;;;;;;;59.50;31.98;;;;;;;7.08;84.20;99049.16;4983285;28;20110;-86
2021/12/05 13:52:30;;;;;;;53.78;30.65;;;;;;;7.30;84.05;99053.59;4985148;28;20046;-86
2021/12/05 13:55:42;;;;;;;60.30;31.88;;;;;;;7.18;83.99;99057.63;4978551;28;20034;-86
2021/12/05 13:58:36;;;;;;;59.83;31.42;;;;;;;7.09;85.05;99059.50;4922105;29;20071;-86
2021/12/05 14:01:04;;;;;;;60.38;31.48;;;;;;;7.14;85.35;99058.97;4985190;28;20109;-86
2021/12/05 14:03:44;;;;;;;59.67;32.72;;;;;;;7.09;85.74;99061.34;4996411;28;20038;-88
2021/12/05 14:06:37;;;;;;;57.72;32.60;;;;;;;7.08;86.07;99071.06;4979152;28;20041;-86
2021/12/05 14:09:21;;;;;;;58.72;32.20;;;;;;;7.03;87.00;99068.09;4996961;28;20043;-86
2021/12/05 14:11:49;;;;;;;53.58;30.83;;;;;;;7.09;87.03;99072.66;4997538;28;20405;-85
2021/12/05 14:14:20;;;;;;;56.88;32.42;;;;;;;7.08;86.28;99070.22;4997607;28;20030;-86
2021/12/05 14:16:48;;;;;;;56.05;31.25;;;;;;;7.12;86.03;99074.97;4979391;28;20042;-84
2021/12/05 14:19:20;;;;;;;61.13;32.40;;;;;;;7.12;86.83;99076.78;4993501;28;20100;-86
2021/12/05 14:21:50;;;;;;;38.37;21.93;;;;;;;7.20;86.46;99072.28;4978776;28;20047;-87
2021/12/05 14:24:23;;;;;;;57.22;31.40;;;;;;;7.29;86.14;99073.03;4977433;28;20034;-86
2021/12/05 14:26:50;;;;;;;55.60;31.33;;;;;;;7.38;85.38;99066.72;4994738;28;20168;-86
2021/12/05 14:29:19;;;;;;;61.38;32.97;;;;;;;7.31;85.36;99065.78;4994332;28;20034;-87
2021/12/05 14:31:54;;;;;;;59.80;31.50;;;;;;;7.27;85.56;99075.84;4994049;28;20037;-86
2021/12/05 14:34:20;;;;;;;57.22;32.15;;;;;;;7.09;86.33;99071.88;4994572;28;20037;-86
2021/12/05 14:36:53;;;;;;;58.70;31.10;;;;;;;7.08;86.43;99064.97;4995477;28;20109;-86
2021/12/05 14:39:37;;;;;;;53.05;30.30;;;;;;;7.18;86.17;99076.09;4996341;28;20038;-85
2021/12/05 14:42:12;;;;;;;55.83;30.17;;;;;;;7.00;87.28;99078.16;4993543;28;20101;-85
2021/12/05 14:44:39;;;;;;;63.13;31.98;;;;;;;7.00;87.60;99079.00;4993373;28;20029;-87
2021/12/05 14:47:10;;;;;;;55.22;30.30;;;;;;;7.13;86.62;99075.78;4997239;28;20026;-85
2021/12/05 14:49:47;;;;;;;58.00;29.92;;;;;;;7.10;87.22;99089.28;4996922;28;20030;-86
2021/12/05 14:52:20;;;;;;;59.28;30.65;;;;;;;7.08;86.97;99088.66;4998697;28;20162;-87
2021/12/05 14:54:46;;;;;;;64.28;32.30;;;;;;;6.99;87.44;99094.97;4981693;28;20061;-85
2021/12/05 14:57:16;;;;;;;64.35;32.72;;;;;;;7.13;87.67;99100.31;4997869;28;20499;-84
2021/12/05 14:59:45;;;;;;;57.00;30.33;;;;;;;7.26;86.97;99095.28;4982805;28;20045;-85
2021/12/05 15:02:11;;;;;;;59.78;30.83;;;;;;;7.34;86.77;99090.94;4994823;28;20404;-86
2021/12/05 15:04:47;;;;;;;57.42;31.13;;;;;;;7.22;87.58;99093.97;4978458;28;20066;-85
2021/12/05 15:07:27;;;;;;;64.32;32.30;;;;;;;7.23;87.71;99094.81;4997652;28;20045;-87
2021/12/05 15:09:57;;;;;;;65.18;33.53;;;;;;;7.21;87.16;99104.72;4996709;28;20038;-90
2021/12/05 15:12:29;;;;;;;59.90;31.45;;;;;;;7.19;88.03;99106.72;5000713;28;20497;-86
2021/12/05 15:14:58;;;;;;;62.17;32.83;;;;;;;7.26;88.22;99108.44;4976569;28;20040;-89
2021/12/05 15:17:28;;;;;;;56.40;31.45;;;;;;;7.27;87.79;99109.28;4998532;28;20138;-88
2021/12/05 15:19:58;;;;;;;57.08;31.55;;;;;;;7.32;86.05;99112.22;4998070;28;20482;-85
2021/12/05 15:22:29;;;;;;;62.40;33.33;;;;;;;6.93;87.30;99111.47;4995310;28;20069;-85
2021/12/05 15:25:10;;;;;;;59.33;32.50;;;;;;;6.83;88.41;99113.50;4995695;28;20046;-84
2021/12/05 15:27:41;;;;;;;61.90;33.22;;;;;;;6.78;88.06;99121.91;4996459;28;20113;-84
2021/12/05 15:30:18;;;;;;;60.35;32.38;;;;;;;6.96;88.16;99114.56;4995309;28;20088;-87
2021/12/05 15:32:45;;;;;;;64.50;33.35;;;;;;;7.00;88.39;99120.31;4977218;28;20509;-84
2021/12/05 15:35:15;;;;;;;66.78;34.20;;;;;;;7.08;88.58;99123.72;4995094;28;20035;-86
2021/12/05 15:37:57;;;;;;;65.05;33.20;;;;;;;7.07;88.83;99127.34;4990409;28;20034;-84
2021/12/05 15:40:25;;;;;;;65.45;32.85;;;;;;;7.04;88.82;99132.16;4993961;28;20126;-86
2021/12/05 15:42:51;;;;;;;61.45;33.47;;;;;;;7.05;89.13;99134.63;4981937;28;20069;-85
2021/12/05 15:45:20;;;;;;;56.72;32.97;;;;;;;7.00;89.94;99136.13;4996630;28;20038;-86
2021/12/05 15:47:47;;;;;;;54.83;33.13;;;;;;;6.82;89.66;99133.75;4996354;28;20042;-88
2021/12/05 15:50:25;;;;;;;62.50;32.55;;;;;;;6.83;89.59;99142.47;4984191;28;20054;-87
2021/12/05 15:53:10;;;;;;;64.57;32.78;;;;;;;6.84;89.75;99144.09;4982727;28;20116;-86
2021/12/05 15:55:38;;;;;;;72.05;34.67;;;;;;;6.91;89.17;99153.78;4979284;28;20050;-85
2021/12/05 15:58:07;;;;;;;102.55;49.78;;;;;;;6.94;88.71;99156.06;4976337;28;20473;-85
2021/12/05 16:00:41;;;;;;;80.25;42.20;;;;;;;6.87;89.41;99159.56;4994028;28;20030;-86
2021/12/05 16:03:10;;;;;;;74.35;39.92;;;;;;;6.95;89.09;99163.00;4976474;28;20070;-89
2021/12/05 16:05:38;;;;;;;66.57;36.67;;;;;;;6.94;88.33;99169.25;4993719;28;20093;-88
2021/12/05 16:08:10;;;;;;;83.30;40.88;;;;;;;6.52;90.23;99164.31;4983549;28;20038;-87
2021/12/05 16:10:40;;;;;;;75.82;40.65;;;;;;;6.38;92.30;99164.19;4993889;28;20456;-86
2021/12/05 16:13:19;;;;;;;78.07;37.20;;;;;;;6.27;92.67;99167.16;4976680;28;20030;-85
2021/12/05 16:15:49;;;;;;;66.65;36.55;;;;;;;6.34;92.80;99168.94;4993679;28;20559;-84
2021/12/05 16:18:16;;;;;;;70.45;37.42;;;;;;;6.38;93.41;99161.53;4994481;28;20421;-87
2021/12/05 16:20:46;;;;;;;75.25;38.03;;;;;;;6.33;94.50;99169.13;4998989;28;20442;-85
2021/12/05 16:23:11;;;;;;;86.10;40.97;;;;;;;6.36;94.96;99174.06;4969634;28;20097;-82
2021/12/05 16:25:57;;;;;;;83.30;40.17;;;;;;;6.31;94.32;99177.19;5002623;28;20441;-84
2021/12/05 16:28:45;;;;;;;68.22;38.17;;;;;;;6.33;94.96;99180.47;4997543;28;20058;-83
2021/12/05 16:31:19;;;;;;;87.45;43.88;;;;;;;6.35;95.23;99196.91;4978272;28;20050;-86
2021/12/05 16:33:52;;;;;;;73.28;39.60;;;;;;;6.11;96.38;99199.56;4989705;28;20038;-84
2021/12/05 16:36:19;;;;;;;78.15;39.70;;;;;;;6.03;95.53;99194.34;4996132;28;20041;-84
2021/12/05 16:38:51;;;;;;;81.28;40.42;;;;;;;5.44;99.83;99192.78;4995349;28;20250;-85
2021/12/05 16:41:29;;;;;;;80.63;43.42;;;;;;;5.16;100.00;99190.44;4997771;28;20046;-88
2021/12/05 16:44:09;;;;;;;82.03;42.30;;;;;;;5.23;100.00;99190.63;4987114;28;20038;-85
2021/12/05 16:46:42;;;;;;;97.05;42.58;;;;;;;5.12;100.00;99185.66;4991859;28;20038;-85
2021/12/05 16:49:11;;;;;;;74.85;39.72;;;;;;;5.15;100.00;99199.28;5005039;28;20037;-85
2021/12/05 16:51:45;;;;;;;80.30;40.15;;;;;;;5.20;100.00;99197.00;5003247;28;20038;-84
2021/12/05 16:54:17;;;;;;;71.65;38.13;;;;;;;5.32;100.00;99205.41;5005278;28;20481;-83
2021/12/05 16:56:58;;;;;;;77.85;40.30;;;;;;;5.41;100.00;99207.06;5000445;28;20073;-82
2021/12/05 16:59:29;;;;;;;74.35;39.80;;;;;;;5.49;100.00;99204.47;5000084;28;20034;-85
2021/12/05 17:02:12;;;;;;;80.68;41.63;;;;;;;5.57;100.00;99199.19;4986260;28;20042;-85
2021/12/05 17:04:58;;;;;;;210.35;87.10;;;;;;;5.45;100.00;99197.06;4969526;28;20374;-84
2021/12/05 17:07:57;;;;;;;113.70;56.35;;;;;;;5.59;100.00;99199.88;5008709;28;20173;-86
2021/12/05 17:10:25;;;;;;;157.93;71.13;;;;;;;5.69;100.00;99200.53;4995569;28;20110;-86
2021/12/05 17:13:11;;;;;;;160.32;70.10;;;;;;;5.78;100.00;99192.66;4996867;28;20026;-85
2021/12/05 17:15:44;;;;;;;94.93;45.70;;;;;;;5.57;99.45;99206.25;4993651;28;20110;-84
2021/12/05 17:18:20;;;;;;;92.05;44.95;;;;;;;5.31;100.00;99203.75;4993007;28;20065;-86
2021/12/05 17:20:50;;;;;;;81.25;42.72;;;;;;;5.17;100.00;99199.16;4997100;28;20039;-85
2021/12/05 17:23:41;;;;;;;86.60;45.03;;;;;;;5.04;100.00;99206.63;4999189;28;20045;-86